Time;durP1;ratioP1;P1;durP2;ratioP2;P2;SDS_P1;SDS_P2;PMS_P1;PMS_P2;Temp;Humidity;BMP_temperature;BMP_pressure;BME280_temperature;BME280_humidity;BME280_pressure;Samples;Min_cycle;Max_cycle;Signal;HPM_P1;HPM_P2
2023/04/11 00:00:16;;;;;;;;;;;8.50;99.90;;;;;;5010788;28;20026;-84
2023/04/11 00:02:42;;;;;;;7.45;4.35;;;8.40;99.90;;;;;;5012258;28;20000;-84
2023/04/11 00:05:08;;;;;;;;;;;8.30;99.90;;;;;;5012213;28;20026;-84
2023/04/11 00:07:34;;;;;;;6.63;3.40;;;8.30;99.90;;;;;;5011917;28;19905;-83
2023/04/11 00:10:01;;;;;;;11.02;4.25;;;8.30;99.90;;;;;;5011499;28;20045;-84
2023/04/11 00:12:26;;;;;;;9.35;4.20;;;8.20;99.90;;;;;;5011680;28;20410;-84
2023/04/11 00:14:52;;;;;;;;;;;8.10;99.90;;;;;;5011756;28;20026;-84
2023/04/11 00:17:19;;;;;;;7.47;3.33;;;8.00;99.90;;;;;;5011798;28;20005;-84
2023/04/11 00:19:45;;;;;;;6.00;3.30;;;8.00;99.90;;;;;;5012564;28;20029;-84
2023/04/11 00:22:12;;;;;;;6.40;4.05;;;8.00;99.90;;;;;;5012631;28;20112;-84
2023/04/11 00:24:39;;;;;;;8.75;4.65;;;8.00;99.90;;;;;;5011064;28;20025;-84
2023/04/11 00:27:05;;;;;;;7.90;3.53;;;8.00;99.90;;;;;;5011568;28;20104;-84
2023/04/11 00:29:34;;;;;;;;;;;8.00;99.90;;;;;;5011864;28;20018;-84
2023/04/11 00:32:00;;;;;;;7.57;4.40;;;7.90;99.90;;;;;;5011437;28;19999;-84
2023/04/11 00:34:26;;;;;;;;;;;7.90;99.90;;;;;;5011910;28;20053;-84
2023/04/11 00:36:52;;;;;;;7.00;4.20;;;7.80;99.90;;;;;;5011567;28;19912;-84
2023/04/11 00:39:19;;;;;;;;;;;7.70;99.90;;;;;;5011946;28;20297;-84
2023/04/11 00:41:45;;;;;;;8.48;4.88;;;7.70;99.90;;;;;;5011182;28;19917;-84
2023/04/11 00:44:10;;;;;;;;;;;7.60;99.90;;;;;;5011875;28;20034;-82
2023/04/11 00:46:38;;;;;;;12.05;5.43;;;7.50;99.90;;;;;;5012706;28;19967;-84
2023/04/11 00:49:03;;;;;;;9.10;5.38;;;7.40;99.90;;;;;;5011099;28;20498;-84
2023/04/11 00:51:29;;;;;;;;;;;7.30;99.90;;;;;;5011969;28;20030;-84
2023/04/11 00:53:55;;;;;;;11.13;5.55;;;7.40;99.90;;;;;;5011296;28;19905;-84
2023/04/11 00:56:21;;;;;;;;;;;7.30;99.90;;;;;;5011853;28;20026;-87
2023/04/11 00:58:47;;;;;;;9.88;4.35;;;7.20;99.90;;;;;;5011572;28;19912;-84
2023/04/11 01:01:13;;;;;;;;;;;7.20;99.90;;;;;;5011853;28;20033;-83
2023/04/11 01:03:40;;;;;;;14.57;5.38;;;7.30;99.90;;;;;;5009459;28;19955;-84
2023/04/11 01:06:07;;;;;;;6.38;4.13;;;7.30;99.90;;;;;;5011000;28;20087;-84
2023/04/11 01:08:35;;;;;;;7.18;3.90;;;7.40;99.90;;;;;;5011214;28;20072;-84
2023/04/11 01:11:01;;;;;;;8.35;4.30;;;7.50;99.90;;;;;;5010682;28;20141;-84
2023/04/11 01:13:29;;;;;;;11.43;5.13;;;7.60;99.90;;;;;;5011353;28;20375;-84
2023/04/11 01:15:55;;;;;;;6.72;3.72;;;7.60;99.90;;;;;;5011172;28;20401;-84
2023/04/11 01:18:20;;;;;;;;;;;7.60;99.90;;;;;;5011641;28;20117;-84
2023/04/11 01:20:46;;;;;;;9.32;4.53;;;7.70;99.90;;;;;;5011145;28;20340;-83
2023/04/11 01:23:12;;;;;;;;;;;7.80;99.90;;;;;;5011679;28;20407;-84
2023/04/11 01:25:38;;;;;;;10.18;4.32;;;7.90;99.90;;;;;;5011091;28;20290;-84
2023/04/11 01:28:04;;;;;;;;;;;7.90;99.90;;;;;;5011424;28;20022;-84
2023/04/11 01:30:30;;;;;;;5.23;2.67;;;7.90;99.90;;;;;;5011217;28;20377;-83
2023/04/11 01:32:55;;;;;;;;;;;7.80;99.90;;;;;;5011496;28;20109;-84
2023/04/11 01:35:21;;;;;;;5.13;2.72;;;7.80;99.90;;;;;;5011038;28;19912;-84
2023/04/11 01:37:47;;;;;;;;;;;7.80;99.90;;;;;;5015270;28;20022;-84
2023/04/11 01:40:18;;;;;;;6.03;3.35;;;7.80;99.90;;;;;;5014380;28;19962;-85
2023/04/11 01:42:45;;;;;;;6.13;3.53;;;7.70;99.90;;;;;;5014554;28;20087;-84
2023/04/11 01:45:11;;;;;;;8.30;4.13;;;7.60;99.90;;;;;;5016742;28;20052;-84
2023/04/11 01:47:37;;;;;;;6.32;4.15;;;7.40;99.90;;;;;;5015419;28;20032;-84
2023/04/11 01:50:03;;;;;;;;;;;7.30;99.90;;;;;;5014810;28;20161;-85
2023/04/11 01:52:29;;;;;;;5.78;3.38;;;7.10;99.90;;;;;;5014162;28;20361;-83
2023/04/11 01:54:55;;;;;;;;;;;7.10;99.90;;;;;;5012963;28;20041;-84
2023/04/11 01:57:20;;;;;;;6.30;4.15;;;7.00;99.90;;;;;;5013867;28;19905;-85
2023/04/11 01:59:46;;;;;;;;;;;6.90;99.90;;;;;;5014403;28;20053;-85
2023/04/11 02:02:11;;;;;;;12.05;4.28;;;6.90;99.90;;;;;;5014045;28;19917;-84
2023/04/11 02:04:37;;;;;;;;;;;6.80;99.90;;;;;;5014241;28;20505;-84
2023/04/11 02:07:02;;;;;;;5.00;2.88;;;6.90;99.90;;;;;;5014131;28;19905;-85
2023/04/11 02:09:28;;;;;;;;;;;7.20;99.90;;;;;;5013069;28;20090;-85
2023/04/11 02:11:55;;;;;;;5.45;3.10;;;7.50;99.90;;;;;;5011091;28;19967;-85
2023/04/11 02:14:21;;;;;;;5.18;3.67;;;7.60;99.90;;;;;;5013942;28;20113;-84
2023/04/11 02:16:55;;;;;;;9.18;3.10;;;7.60;99.90;;;;;;5014893;28;20029;-83
2023/04/11 02:19:22;;;;;;;8.63;3.33;;;7.60;99.90;;;;;;5013771;28;20026;-85
2023/04/11 02:21:48;;;;;;;5.45;2.88;;;7.60;99.90;;;;;;5013662;28;20038;-85
2023/04/11 02:24:14;;;;;;;6.78;3.13;;;7.60;99.90;;;;;;5013679;28;20022;-84
2023/04/11 02:26:43;;;;;;;6.93;3.08;;;7.50;99.90;;;;;;5013839;28;20033;-84
2023/04/11 02:29:08;;;;;;;6.82;3.28;;;7.40;99.90;;;;;;5013724;28;20556;-84
2023/04/11 02:31:34;;;;;;;;;;;7.40;99.90;;;;;;5014126;28;20030;-84
2023/04/11 02:34:00;;;;;;;5.35;3.20;;;7.20;99.90;;;;;;5013572;28;19913;-85
2023/04/11 02:36:27;;;;;;;;;;;7.20;99.90;;;;;;5013857;28;20033;-85
2023/04/11 02:38:53;;;;;;;7.07;4.47;;;7.00;99.90;;;;;;5013437;28;20382;-85
2023/04/11 02:41:18;;;;;;;;;;;7.00;99.90;;;;;;5013846;28;20132;-84
2023/04/11 02:43:44;;;;;;;5.68;3.63;;;6.90;99.90;;;;;;5012962;28;19920;-85
2023/04/11 02:46:09;;;;;;;;;;;6.90;99.90;;;;;;5013638;28;20034;-84
2023/04/11 02:48:35;;;;;;;11.70;3.63;;;6.90;99.90;;;;;;5013034;28;19909;-85
2023/04/11 02:51:01;;;;;;;;;;;6.80;99.90;;;;;;5013901;28;20030;-84
2023/04/11 02:53:26;;;;;;;5.85;3.70;;;6.80;99.90;;;;;;5011161;28;19913;-85
2023/04/11 02:55:52;;;;;;;;;;;6.80;99.90;;;;;;5012397;28;20029;-84
2023/04/11 02:58:18;;;;;;;6.47;3.90;;;6.70;99.90;;;;;;5012981;28;19949;-85
2023/04/11 03:00:44;;;;;;;8.30;4.45;;;6.60;99.90;;;;;;5012856;28;20033;-84
2023/04/11 03:03:10;;;;;;;;;;;6.60;99.90;;;;;;5013454;28;20029;-85
2023/04/11 03:05:36;;;;;;;11.18;5.70;;;6.60;99.90;;;;;;5013080;28;19906;-84
2023/04/11 03:08:02;;;;;;;;;;;6.60;99.90;;;;;;5013776;28;20033;-84
2023/04/11 03:10:28;;;;;;;15.00;5.43;;;6.60;99.90;;;;;;5012950;28;20511;-84
2023/04/11 03:12:53;;;;;;;10.43;6.20;;;6.50;99.90;;;;;;5012762;28;20030;-85
2023/04/11 03:15:19;;;;;;;;;;;6.50;99.90;;;;;;5013044;28;20032;-84
2023/04/11 03:17:44;;;;;;;14.02;8.05;;;6.40;99.90;;;;;;5012212;28;19959;-84
2023/04/11 03:20:18;;;;;;;;;;;6.50;99.90;;;;;;5013155;28;20080;-84
2023/04/11 03:22:45;;;;;;;8.55;4.70;;;6.50;99.90;;;;;;5012538;28;20283;-85
2023/04/11 03:25:11;;;;;;;8.30;4.05;;;6.60;99.90;;;;;;5012448;28;20034;-85
2023/04/11 03:27:36;;;;;;;;;;;6.60;99.90;;;;;;5014064;28;20368;-83
2023/04/11 03:30:02;;;;;;;7.78;3.85;;;6.60;99.90;;;;;;5012467;28;19959;-84
2023/04/11 03:32:28;;;;;;;8.85;5.15;;;6.50;99.90;;;;;;5012090;28;20018;-85
2023/04/11 03:34:53;;;;;;;;;;;6.40;99.90;;;;;;5011041;28;20036;-84
2023/04/11 03:37:19;;;;;;;11.35;6.18;;;6.40;99.90;;;;;;5012083;28;19951;-84
2023/04/11 03:39:44;;;;;;;;;;;6.40;99.90;;;;;;5012764;28;20029;-84
2023/04/11 03:42:11;;;;;;;10.60;7.10;;;6.30;99.90;;;;;;5011966;28;20393;-84
2023/04/11 03:44:37;;;;;;;10.98;7.18;;;6.30;99.90;;;;;;5011985;28;20037;-84
2023/04/11 03:47:02;;;;;;;;;;;6.20;99.90;;;;;;5012586;28;20026;-84
2023/04/11 03:49:28;;;;;;;15.05;6.82;;;6.20;99.90;;;;;;5012183;28;19915;-85
2023/04/11 03:51:53;;;;;;;;;;;6.10;99.90;;;;;;5012574;28;20026;-84
2023/04/11 03:54:19;;;;;;;9.90;6.78;;;6.10;99.90;;;;;;5012120;28;20305;-84
2023/04/11 03:56:45;;;;;;;;;;;6.00;99.90;;;;;;5012468;28;20044;-83
2023/04/11 03:59:12;;;;;;;13.05;5.07;;;5.90;99.90;;;;;;5011532;28;19967;-85
2023/04/11 04:01:38;;;;;;;6.78;4.55;;;5.80;99.90;;;;;;5011981;28;20038;-84
2023/04/11 04:04:04;;;;;;;;;;;5.80;99.90;;;;;;5012101;28;20022;-84
2023/04/11 04:06:29;;;;;;;10.35;3.92;;;5.70;99.90;;;;;;5013026;28;19953;-85
2023/04/11 04:08:55;;;;;;;;;;;5.60;99.90;;;;;;5012338;28;20026;-85
2023/04/11 04:11:21;;;;;;;7.30;4.20;;;5.60;99.90;;;;;;5011818;28;19944;-84
2023/04/11 04:13:46;;;;;;;;;;;5.60;99.90;;;;;;5012085;28;20505;-85
2023/04/11 04:16:12;;;;;;;8.30;4.75;;;5.60;99.90;;;;;;5011962;28;19912;-85
2023/04/11 04:18:38;;;;;;;9.85;6.55;;;5.70;99.90;;;;;;5011672;28;20549;-85
2023/04/11 04:21:06;;;;;;;;;;;5.70;99.90;;;;;;5010368;28;20038;-85
2023/04/11 04:23:31;;;;;;;10.70;7.03;;;5.80;99.90;;;;;;5009665;28;20267;-84
2023/04/11 04:26:00;;;;;;;;;;;5.80;99.90;;;;;;5012025;28;20044;-84
2023/04/11 04:28:27;;;;;;;9.38;6.68;;;5.90;99.90;;;;;;5011314;28;19906;-85
2023/04/11 04:30:53;;;;;;;10.98;7.15;;;6.00;99.90;;;;;;5010846;28;20022;-84
2023/04/11 04:33:22;;;;;;;16.08;8.40;;;6.00;99.90;;;;;;5010824;28;20061;-85
2023/04/11 04:35:50;;;;;;;13.98;7.75;;;6.00;99.90;;;;;;5011551;28;20054;-84
2023/04/11 04:38:16;;;;;;;11.30;6.15;;;6.10;99.90;;;;;;5011344;28;20026;-85
2023/04/11 04:40:42;;;;;;;9.50;5.65;;;6.00;99.90;;;;;;5010579;28;20417;-83
2023/04/11 04:43:17;;;;;;;10.75;5.97;;;6.10;99.90;;;;;;5009625;28;20120;-85
2023/04/11 04:45:44;;;;;;;9.90;5.85;;;6.30;99.90;;;;;;5011113;28;20056;-85
2023/04/11 04:48:12;;;;;;;14.00;6.15;;;6.50;99.90;;;;;;5011359;28;20103;-85
2023/04/11 04:50:37;;;;;;;8.23;5.43;;;6.70;99.90;;;;;;5011347;28;20386;-85
2023/04/11 04:53:03;;;;;;;;;;;6.90;99.90;;;;;;5011380;28;20125;-83
2023/04/11 04:55:29;;;;;;;11.25;6.95;;;7.30;99.90;;;;;;5010174;28;19979;-83
2023/04/11 04:57:55;;;;;;;43.45;19.10;;;8.00;99.90;;;;;;5009890;28;20026;-83
2023/04/11 05:00:21;;;;;;;;;;;8.80;99.90;;;;;;5010168;28;20089;-85
2023/04/11 05:02:46;;;;;;;23.65;10.65;;;9.50;99.90;;;;;;5010549;28;19905;-84
2023/04/11 05:05:12;;;;;;;;;;;10.10;99.90;;;;;;5011293;28;20022;-85
2023/04/11 05:07:38;;;;;;;20.77;11.13;;;10.70;99.90;;;;;;5009800;28;19912;-85
2023/04/11 05:10:04;;;;;;;;;;;11.20;99.90;;;;;;5011265;28;20132;-84
2023/04/11 05:12:30;;;;;;;22.73;13.10;;;11.40;99.90;;;;;;5013856;28;19910;-86
2023/04/11 05:14:55;;;;;;;;;;;11.80;99.90;;;;;;5015001;28;20056;-85
2023/04/11 05:17:22;;;;;;;21.92;11.77;;;12.30;99.90;;;;;;5014021;28;19905;-85
2023/04/11 05:19:48;;;;;;;16.63;10.18;;;12.70;99.90;;;;;;5013732;28;20026;-86
2023/04/11 05:22:13;;;;;;;;;;;13.10;99.90;;;;;;5014330;28;20041;-86
2023/04/11 05:24:39;;;;;;;14.35;7.95;;;13.50;94.70;;;;;;5014789;28;20023;-86
2023/04/11 05:27:05;;;;;;;;;;;14.10;97.60;;;;;;5014860;28;20557;-85
2023/04/11 05:29:30;;;;;;;14.13;9.00;;;14.40;89.50;;;;;;5014578;28;20482;-86
2023/04/11 05:31:56;;;;;;;15.95;8.20;;;14.60;91.90;;;;;;5014610;28;20275;-86
2023/04/11 05:34:22;;;;;;;14.20;7.78;;;14.80;91.40;;;;;;5014058;28;20037;-85
2023/04/11 05:36:47;;;;;;;19.00;9.77;;;15.00;92.70;;;;;;5013790;28;20045;-86
2023/04/11 05:39:13;;;;;;;16.83;5.35;;;15.30;90.80;;;;;;5014041;28;20030;-86
2023/04/11 05:41:39;;;;;;;6.80;4.18;;;15.40;87.40;;;;;;5014043;28;20048;-85
2023/04/11 05:44:04;;;;;;;17.58;7.30;;;15.60;89.90;;;;;;5013079;28;20030;-85
2023/04/11 05:46:35;;;;;;;17.00;9.75;;;16.00;81.40;;;;;;5013768;28;20057;-86
2023/04/11 05:49:01;;;;;;;15.70;8.77;;;16.10;80.40;;;;;;5013479;28;20050;-84
2023/04/11 05:51:27;;;;;;;13.30;7.18;;;16.00;82.30;;;;;;5014288;28;20060;-86
2023/04/11 05:53:52;;;;;;;11.32;5.55;;;16.20;77.30;;;;;;5013062;28;20022;-86
2023/04/11 05:56:18;;;;;;;6.82;2.78;;;16.70;74.80;;;;;;5013349;28;20026;-86
2023/04/11 05:58:44;;;;;;;3.70;1.98;;;16.60;71.50;;;;;;5013739;28;20021;-85
2023/04/11 06:01:17;;;;;;;11.60;4.35;;;16.60;69.70;;;;;;5013845;28;20445;-85
2023/04/11 06:03:44;;;;;;;9.65;5.95;;;16.60;69.40;;;;;;5013447;28;20064;-85
2023/04/11 06:06:09;;;;;;;7.85;3.90;;;17.00;69.00;;;;;;5012126;28;20033;-84
2023/04/11 06:08:35;;;;;;;34.72;27.90;;;17.60;67.50;;;;;;5012159;28;20026;-84
2023/04/11 06:11:01;;;;;;;26.48;18.75;;;18.40;61.50;;;;;;5011750;28;20050;-84
2023/04/11 06:13:27;;;;;;;9.60;4.88;;;18.70;59.20;;;;;;5011882;28;20037;-85
2023/04/11 06:15:52;;;;;;;20.50;11.90;;;19.00;57.70;;;;;;5011778;28;20398;-83
2023/04/11 06:18:18;;;;;;;13.95;9.20;;;19.40;56.60;;;;;;5012246;28;20481;-84
2023/04/11 06:20:45;;;;;;;9.82;5.00;;;19.30;55.60;;;;;;5012079;28;20029;-84
2023/04/11 06:23:10;;;;;;;11.38;1.73;;;19.20;57.40;;;;;;5013080;28;20037;-85
2023/04/11 06:25:36;;;;;;;3.90;2.22;;;19.90;52.80;;;;;;5012835;28;20026;-84
2023/04/11 06:28:02;;;;;;;7.63;1.85;;;20.00;52.80;;;;;;5012007;28;20529;-86
2023/04/11 06:30:28;;;;;;;5.25;2.17;;;20.20;52.90;;;;;;5011335;28;20022;-84
2023/04/11 06:32:54;;;;;;;4.60;2.55;;;20.50;53.40;;;;;;5010644;28;20038;-87
2023/04/11 06:35:23;;;;;;;4.13;2.00;;;20.80;52.40;;;;;;5011658;28;20054;-86
2023/04/11 06:37:50;;;;;;;4.10;1.92;;;21.20;52.50;;;;;;5012046;28;20053;-86
2023/04/11 06:40:18;;;;;;;2.75;1.55;;;21.60;51.40;;;;;;5012980;28;20026;-84
2023/04/11 06:42:44;;;;;;;3.53;1.77;;;21.70;50.80;;;;;;5011253;28;20544;-84
2023/04/11 06:45:10;;;;;;;3.85;1.92;;;22.10;51.10;;;;;;5011934;28;20034;-82
2023/04/11 06:47:36;;;;;;;3.47;2.05;;;22.10;49.70;;;;;;5012581;28;20033;-84
2023/04/11 06:50:02;;;;;;;2.47;1.42;;;22.10;49.30;;;;;;5011924;28;20037;-84
2023/04/11 06:52:29;;;;;;;3.53;1.83;;;22.50;48.80;;;;;;5012447;28;20033;-84
2023/04/11 06:54:55;;;;;;;2.90;1.88;;;22.70;48.30;;;;;;5010846;28;20033;-84
2023/04/11 06:57:20;;;;;;;7.55;2.20;;;22.50;48.20;;;;;;5010645;28;20060;-84
2023/04/11 06:59:46;;;;;;;3.90;2.00;;;22.70;48.30;;;;;;5011762;28;20021;-83
2023/04/11 07:02:12;;;;;;;4.35;2.40;;;22.80;48.40;;;;;;5010612;28;20034;-84
2023/04/11 07:04:38;;;;;;;7.15;2.28;;;22.80;48.50;;;;;;5011040;28;20030;-83
2023/04/11 07:07:04;;;;;;;5.20;1.73;;;23.20;47.40;;;;;;5011957;28;20029;-84
2023/04/11 07:09:30;;;;;;;5.40;2.20;;;23.50;47.00;;;;;;5011202;28;20026;-83
2023/04/11 07:11:56;;;;;;;2.75;1.88;;;23.80;45.80;;;;;;5012455;28;20053;-85
2023/04/11 07:14:22;;;;;;;2.97;1.85;;;23.70;45.40;;;;;;5011105;28;20525;-83
2023/04/11 07:16:47;;;;;;;3.55;2.10;;;23.70;45.30;;;;;;5010250;28;20026;-82
2023/04/11 07:19:13;;;;;;;3.97;1.58;;;24.00;44.60;;;;;;5012328;28;20580;-84
2023/04/11 07:21:38;;;;;;;2.85;1.55;;;24.30;44.40;;;;;;5010445;28;20145;-85
2023/04/11 07:24:09;;;;;;;6.20;1.50;;;24.20;44.50;;;;;;5012259;28;20028;-82
2023/04/11 07:26:37;;;;;;;2.97;1.88;;;24.20;44.20;;;;;;5012653;28;20042;-84
2023/04/11 07:29:03;;;;;;;2.40;1.52;;;24.60;43.90;;;;;;5010931;28;20026;-83
2023/04/11 07:31:29;;;;;;;5.35;1.63;;;24.70;43.70;;;;;;5010679;28;20429;-82
2023/04/11 07:33:55;;;;;;;3.80;1.92;;;24.20;44.00;;;;;;5008908;28;20459;-85
2023/04/11 07:36:21;;;;;;;2.85;1.80;;;23.80;43.00;;;;;;5010863;28;20105;-84
2023/04/11 07:38:47;;;;;;;5.55;2.13;;;23.40;44.20;;;;;;5010689;28;20453;-85
2023/04/11 07:41:12;;;;;;;3.53;2.17;;;23.00;45.70;;;;;;5010956;28;20705;-86
2023/04/11 07:43:38;;;;;;;5.60;1.85;;;22.90;46.10;;;;;;5011910;28;20033;-83
2023/04/11 07:46:04;;;;;;;7.20;1.83;;;23.00;46.20;;;;;;5009774;28;20030;-84
2023/04/11 07:48:30;;;;;;;6.45;2.33;;;22.80;47.50;;;;;;5009661;28;20451;-85
2023/04/11 07:50:56;;;;;;;4.63;1.90;;;23.10;46.50;;;;;;5009584;28;20489;-84
2023/04/11 07:53:22;;;;;;;5.13;1.75;;;23.10;46.20;;;;;;5009970;28;20572;-85
2023/04/11 07:55:48;;;;;;;3.40;1.70;;;23.20;45.70;;;;;;5008816;28;20483;-84
2023/04/11 07:58:14;;;;;;;3.25;1.88;;;23.30;45.40;;;;;;5010073;28;20061;-84
2023/04/11 08:00:39;;;;;;;7.45;1.92;;;23.70;45.60;;;;;;5009554;28;20029;-83
2023/04/11 08:03:09;;;;;;;4.70;2.05;;;24.30;43.80;;;;;;5010778;28;20041;-84
2023/04/11 08:05:36;;;;;;;4.43;2.05;;;24.50;43.10;;;;;;5010499;28;20026;-84
2023/04/11 08:08:03;;;;;;;5.10;1.55;;;24.70;43.00;;;;;;5009045;28;20110;-83
2023/04/11 08:10:29;;;;;;;3.45;2.10;;;25.10;42.50;;;;;;5008544;28;20054;-82
2023/04/11 08:12:55;;;;;;;5.72;2.28;;;25.20;41.40;;;;;;5010544;28;20418;-84
2023/04/11 08:15:21;;;;;;;5.45;3.05;;;25.20;41.90;;;;;;5010013;28;20022;-83
2023/04/11 08:17:48;;;;;;;3.45;2.13;;;25.50;41.80;;;;;;5009873;28;20103;-83
2023/04/11 08:20:15;;;;;;;3.53;1.88;;;25.40;41.40;;;;;;5009505;28;20076;-83
2023/04/11 08:22:43;;;;;;;6.13;1.80;;;25.50;41.10;;;;;;5008350;28;20183;-83
2023/04/11 08:25:10;;;;;;;3.75;2.17;;;25.50;41.90;;;;;;5010145;28;20483;-81
2023/04/11 08:27:40;;;;;;;6.10;2.55;;;25.40;42.60;;;;;;5009508;28;20518;-83
2023/04/11 08:30:09;;;;;;;4.53;2.50;;;25.20;42.20;;;;;;5010048;28;20042;-84
2023/04/11 08:32:35;;;;;;;4.80;2.35;;;24.80;43.60;;;;;;5008839;28;20033;-83
2023/04/11 08:35:01;;;;;;;4.68;2.17;;;24.90;42.70;;;;;;5008929;28;20033;-84
2023/04/11 08:37:27;;;;;;;4.13;2.22;;;24.90;42.50;;;;;;5009784;28;20033;-82
2023/04/11 08:39:52;;;;;;;4.97;2.03;;;24.80;42.90;;;;;;5009003;28;20133;-84
2023/04/11 08:42:26;;;;;;;4.20;2.53;;;24.40;42.80;;;;;;5009422;28;20216;-82
2023/04/11 08:45:00;;;;;;;4.90;2.85;;;24.30;43.40;;;;;;5008081;28;20079;-84
2023/04/11 08:47:26;;;;;;;4.47;3.00;;;24.20;43.60;;;;;;5012427;28;20022;-84
2023/04/11 08:49:52;;;;;;;4.53;2.85;;;24.20;44.10;;;;;;5011802;28;20033;-83
2023/04/11 08:52:19;;;;;;;6.53;3.38;;;24.40;43.70;;;;;;5013666;28;20037;-84
2023/04/11 08:54:46;;;;;;;4.53;2.42;;;24.50;44.10;;;;;;5012336;28;20068;-84
2023/04/11 08:57:33;;;;;;;3.30;2.25;;;24.60;43.90;;;;;;5013244;28;20032;-84
2023/04/11 09:00:17;;;;;;;3.72;2.10;;;24.30;44.00;;;;;;5012321;28;20034;-83
2023/04/11 09:03:06;;;;;;;3.53;2.50;;;23.90;44.00;;;;;;5013300;28;20018;-83
2023/04/11 09:05:37;;;;;;;7.53;2.13;;;23.00;46.40;;;;;;5013792;28;20030;-84
2023/04/11 09:08:08;;;;;;;3.90;2.65;;;22.50;47.90;;;;;;5013271;28;20022;-84
2023/04/11 09:10:34;;;;;;;4.57;2.45;;;22.30;48.50;;;;;;5013434;28;20054;-84
2023/04/11 09:13:01;;;;;;;5.93;2.75;;;22.40;48.80;;;;;;5013210;28;20042;-84
2023/04/11 09:15:29;;;;;;;3.33;1.90;;;22.60;47.70;;;;;;5011631;28;20538;-84
2023/04/11 09:17:56;;;;;;;5.10;2.50;;;22.90;49.20;;;;;;5012782;28;20065;-84
2023/04/11 09:20:28;;;;;;;4.00;2.50;;;23.50;47.30;;;;;;5013050;28;20049;-84
2023/04/11 09:22:53;;;;;;;4.82;2.67;;;24.10;46.10;;;;;;5014055;28;20026;-85
2023/04/11 09:25:21;;;;;;;5.22;2.40;;;24.50;45.50;;;;;;5012560;28;20036;-83
2023/04/11 09:27:47;;;;;;;4.90;2.70;;;24.60;45.10;;;;;;5012727;28;20510;-83
2023/04/11 09:30:24;;;;;;;3.38;2.28;;;24.20;44.30;;;;;;5012898;28;20045;-84
2023/04/11 09:32:52;;;;;;;4.68;2.22;;;23.30;46.20;;;;;;5014020;28;20143;-84
2023/04/11 09:35:26;;;;;;;3.70;2.22;;;22.50;48.00;;;;;;5011995;28;20402;-83
2023/04/11 09:37:54;;;;;;;3.50;2.13;;;21.90;48.30;;;;;;5011484;28;20117;-84
2023/04/11 09:40:23;;;;;;;5.90;2.70;;;21.50;48.60;;;;;;5011977;28;20490;-84
2023/04/11 09:42:57;;;;;;;3.47;2.47;;;21.00;49.50;;;;;;5011784;28;20096;-84
2023/04/11 09:45:24;;;;;;;6.85;2.72;;;20.60;50.90;;;;;;5012029;28;20540;-82
2023/04/11 09:47:52;;;;;;;5.43;2.42;;;20.50;52.90;;;;;;5013412;28;20018;-84
2023/04/11 09:50:18;;;;;;;5.28;2.85;;;20.80;52.20;;;;;;5011930;28;20083;-84
2023/04/11 09:52:45;;;;;;;3.60;2.30;;;21.50;51.00;;;;;;5010918;28;20040;-84
2023/04/11 09:55:13;;;;;;;5.85;2.50;;;21.90;51.00;;;;;;5013669;28;20435;-84
2023/04/11 09:57:45;;;;;;;3.60;2.38;;;22.30;49.60;;;;;;5010221;28;20060;-85
2023/04/11 10:00:17;;;;;;;4.60;2.60;;;22.30;49.20;;;;;;5012732;28;20030;-85
2023/04/11 10:02:45;;;;;;;4.88;2.65;;;22.40;49.30;;;;;;5012070;28;20030;-84
2023/04/11 10:05:12;;;;;;;7.07;2.90;;;22.20;49.60;;;;;;5012410;28;20105;-83
2023/04/11 10:07:50;;;;;;;4.75;2.83;;;22.20;49.60;;;;;;5012046;28;20030;-85
2023/04/11 10:10:19;;;;;;;7.15;2.60;;;21.90;49.60;;;;;;5012252;28;20045;-84
2023/04/11 10:12:45;;;;;;;5.40;3.03;;;21.50;50.10;;;;;;5010356;28;20046;-83
2023/04/11 10:15:11;;;;;;;5.32;3.40;;;21.20;50.90;;;;;;5012893;28;20026;-84
2023/04/11 10:17:38;;;;;;;4.47;2.90;;;21.00;51.20;;;;;;5010753;28;20548;-83
2023/04/11 10:20:30;;;;;;;4.00;3.03;;;20.70;52.40;;;;;;5011820;28;20125;-83
2023/04/11 10:23:00;;;;;;;5.85;3.53;;;20.30;54.40;;;;;;5011113;28;20040;-81
2023/04/11 10:25:26;;;;;;;5.25;2.85;;;19.90;55.10;;;;;;5011766;28;20026;-85
2023/04/11 10:28:02;;;;;;;7.70;2.88;;;19.80;55.50;;;;;;5011985;28;20100;-83
2023/04/11 10:30:40;;;;;;;;;;;19.80;54.40;;;;;;5011771;28;20037;-84
2023/04/11 10:33:10;;;;;;;3.63;1.95;;;19.60;55.20;;;;;;5012326;28;19913;-83
2023/04/11 10:35:58;;;;;;;3.47;2.38;;;19.70;56.00;;;;;;5011854;28;20033;-82
2023/04/11 10:38:36;;;;;;;6.05;3.00;;;19.90;55.40;;;;;;5011843;28;20025;-84
2023/04/11 10:41:13;;;;;;;3.33;1.98;;;19.90;54.40;;;;;;5010143;28;20124;-83
2023/04/11 10:43:39;;;;;;;3.53;2.10;;;19.90;53.80;;;;;;5012280;28;20049;-84
2023/04/11 10:46:24;;;;;;;5.00;2.60;;;19.80;55.80;;;;;;5010073;28;20069;-82
2023/04/11 10:49:03;;;;;;;7.25;2.55;;;19.90;54.60;;;;;;5012940;28;20022;-84
2023/04/11 10:51:30;;;;;;;4.25;2.47;;;19.80;55.10;;;;;;5010821;28;20566;-84
2023/04/11 10:54:00;;;;;;;6.28;2.20;;;19.90;55.30;;;;;;5010117;28;20026;-84
2023/04/11 10:56:41;;;;;;;6.95;2.20;;;20.10;55.70;;;;;;5010041;28;20022;-83
2023/04/11 10:59:26;;;;;;;4.53;2.17;;;20.20;56.30;;;;;;5009747;28;20026;-82
2023/04/11 11:01:55;;;;;;;6.00;2.40;;;20.20;55.30;;;;;;5010253;28;20113;-84
2023/04/11 11:04:30;;;;;;;3.70;1.90;;;20.20;55.40;;;;;;5011261;28;20153;-84
2023/04/11 11:06:57;;;;;;;4.30;2.25;;;20.00;55.90;;;;;;5010742;28;20533;-83
2023/04/11 11:09:23;;;;;;;4.13;2.20;;;20.00;54.80;;;;;;5010576;28;20406;-84
2023/04/11 11:12:05;;;;;;;3.85;1.85;;;19.70;55.50;;;;;;5011512;28;20254;-83
2023/04/11 11:14:33;;;;;;;4.65;2.55;;;19.60;56.50;;;;;;5011377;28;20092;-83
2023/04/11 11:16:59;;;;;;;4.53;2.35;;;19.70;56.40;;;;;;5011447;28;20026;-83
2023/04/11 11:19:25;;;;;;;5.88;2.78;;;19.70;57.60;;;;;;5009671;28;20021;-83
2023/04/11 11:21:51;;;;;;;7.80;3.00;;;19.60;57.20;;;;;;5010500;28;20037;-83
2023/04/11 11:24:24;;;;;;;6.57;2.97;;;19.40;57.80;;;;;;5009954;28;20026;-83
2023/04/11 11:26:51;;;;;;;3.35;2.22;;;19.30;58.90;;;;;;5010113;28;20026;-84
2023/04/11 11:29:32;;;;;;;5.97;2.85;;;19.10;58.60;;;;;;5009786;28;20486;-82
2023/04/11 11:32:00;;;;;;;6.07;2.63;;;19.00;58.80;;;;;;5010420;28;20403;-83
2023/04/11 11:34:33;;;;;;;3.60;2.30;;;18.90;58.80;;;;;;5009202;28;20398;-82
2023/04/11 11:37:03;;;;;;;5.75;2.78;;;18.80;59.60;;;;;;5009518;28;20032;-82
2023/04/11 11:39:30;;;;;;;4.80;2.30;;;18.70;60.40;;;;;;5010524;28;20437;-83
2023/04/11 11:41:56;;;;;;;6.57;2.53;;;18.80;61.30;;;;;;5009471;28;20041;-82
2023/04/11 11:44:30;;;;;;;5.32;2.70;;;18.80;60.20;;;;;;5010851;28;20049;-83
2023/04/11 11:47:05;;;;;;;5.22;2.55;;;18.80;59.90;;;;;;5009213;28;20109;-82
2023/04/11 11:49:44;;;;;;;5.47;2.45;;;18.80;58.90;;;;;;5010188;28;20116;-82
2023/04/11 11:52:10;;;;;;;8.43;2.38;;;18.80;60.30;;;;;;5009072;28;20053;-83
2023/04/11 11:54:44;;;;;;;5.00;2.45;;;18.80;61.80;;;;;;5008824;28;20018;-83
2023/04/11 11:57:10;;;;;;;5.72;2.70;;;18.80;60.90;;;;;;5009271;28;20041;-84
2023/04/11 11:59:36;;;;;;;6.43;3.03;;;18.70;60.50;;;;;;5009251;28;20410;-85
2023/04/11 12:02:03;;;;;;;4.93;2.78;;;18.70;60.80;;;;;;5008611;28;20076;-81
2023/04/11 12:04:31;;;;;;;5.25;2.78;;;18.70;61.10;;;;;;5009561;28;20483;-83
2023/04/11 12:06:56;;;;;;;4.15;2.63;;;18.80;62.30;;;;;;5011031;28;20033;-83
2023/04/11 12:09:30;;;;;;;7.43;2.65;;;18.90;61.50;;;;;;5009003;28;20033;-82
2023/04/11 12:11:56;;;;;;;5.78;2.90;;;18.90;60.60;;;;;;5009137;28;20133;-82
2023/04/11 12:14:22;;;;;;;5.55;2.45;;;18.90;60.10;;;;;;5010863;28;20112;-83
2023/04/11 12:16:52;;;;;;;4.10;2.35;;;18.90;60.30;;;;;;5009095;28;20026;-84
2023/04/11 12:19:18;;;;;;;5.10;2.80;;;19.10;61.30;;;;;;5010325;28;20072;-82
2023/04/11 12:21:43;;;;;;;7.20;3.13;;;19.20;61.10;;;;;;5008017;28;20030;-84
2023/04/11 12:24:09;;;;;;;4.85;3.08;;;19.50;59.00;;;;;;5008898;28;20353;-84
2023/04/11 12:26:35;;;;;;;5.18;2.80;;;19.50;59.60;;;;;;5010555;28;20058;-82
2023/04/11 12:29:02;;;;;;;6.15;3.10;;;19.50;58.90;;;;;;5008832;28;20534;-84
2023/04/11 12:31:27;;;;;;;12.90;3.42;;;19.50;59.50;;;;;;5008220;28;20026;-83
2023/04/11 12:33:53;;;;;;;8.68;3.20;;;19.50;60.40;;;;;;5008544;28;20037;-83
2023/04/11 12:36:20;;;;;;;6.57;3.20;;;19.50;59.30;;;;;;5008539;28;20029;-82
2023/04/11 12:38:46;;;;;;;10.02;3.58;;;19.40;60.50;;;;;;5008841;28;20208;-83
2023/04/11 12:41:11;;;;;;;6.97;3.13;;;19.20;58.30;;;;;;5008787;28;20053;-85
2023/04/11 12:43:37;;;;;;;7.43;3.10;;;19.00;57.90;;;;;;5009702;28;20386;-83
2023/04/11 12:46:03;;;;;;;7.88;2.90;;;19.00;59.10;;;;;;5007738;28;20057;-83
2023/04/11 12:48:28;;;;;;;6.60;2.67;;;18.90;58.20;;;;;;5009058;28;20030;-82
2023/04/11 12:50:54;;;;;;;6.03;3.15;;;18.90;60.30;;;;;;5008685;28;20022;-82
2023/04/11 12:53:19;;;;;;;5.70;3.00;;;18.80;60.90;;;;;;5009096;28;20494;-84
2023/04/11 12:55:45;;;;;;;4.20;3.05;;;19.00;61.30;;;;;;5007553;28;20117;-84
2023/04/11 12:58:11;;;;;;;4.78;3.13;;;19.20;60.80;;;;;;5008606;28;20529;-82
2023/04/11 13:00:36;;;;;;;17.77;3.50;;;19.40;59.90;;;;;;5008618;28;20430;-82
2023/04/11 13:03:03;;;;;;;6.53;3.45;;;19.50;58.40;;;;;;5008317;28;20029;-84